createdAt,value
2023-03-26T00:01:17.677Z,98120.97
2023-03-26T00:03:47.388Z,98115.16
2023-03-26T00:06:16.937Z,98131.50
2023-03-26T00:08:45.389Z,98127.31
2023-03-26T00:11:13.881Z,98125.53
2023-03-26T00:13:44.037Z,98121.13
2023-03-26T00:16:13.982Z,98126.19
2023-03-26T00:18:44.506Z,98124.47
2023-03-26T00:21:14.400Z,98119.84
2023-03-26T00:23:41.829Z,98122.94
2023-03-26T00:26:12.224Z,98126.38
2023-03-26T00:28:41.065Z,98133.28
2023-03-26T00:31:10.173Z,98131.34
2023-03-26T00:33:38.720Z,98125.97
2023-03-26T00:36:10.149Z,98124.72
2023-03-26T00:38:39.560Z,98120.72
2023-03-26T00:41:18.084Z,98111.50
2023-03-26T00:43:46.853Z,98117.00
2023-03-26T00:46:14.009Z,98114.38
2023-03-26T00:48:45.887Z,98108.88
2023-03-26T00:51:15.976Z,98107.38
2023-03-26T00:53:44.395Z,98107.19
2023-03-26T00:56:11.425Z,98107.75
2023-03-26T00:58:38.876Z,98112.16
2023-03-26T01:04:08.064Z,98104.91
2023-03-26T01:06:38.202Z,98113.16
2023-03-26T01:09:16.632Z,98109.34
2023-03-26T01:11:44.804Z,98113.53
2023-03-26T01:14:21.968Z,98110.47
2023-03-26T01:16:53.110Z,98126.28
2023-03-26T01:19:54.006Z,98135.91
2023-03-26T01:22:24.796Z,98145.47
2023-03-26T01:24:57.010Z,98133.53
2023-03-26T01:27:41.646Z,98129.47
2023-03-26T01:30:28.669Z,98138.25
2023-03-26T01:33:44.246Z,98135.34
2023-03-26T01:36:11.450Z,98130.66
2023-03-26T01:39:00.583Z,98121.53
2023-03-26T01:41:33.807Z,98119.00
2023-03-26T01:44:43.406Z,98113.03
2023-03-26T01:47:10.858Z,98114.88
2023-03-26T01:49:37.684Z,98118.00
2023-03-26T01:52:12.142Z,98122.13
2023-03-26T01:54:39.168Z,98122.25
2023-03-26T01:57:47.836Z,98123.41
2023-03-26T02:00:39.629Z,98117.78
2023-03-26T02:03:23.422Z,98119.31
2023-03-26T02:05:56.862Z,98116.72
2023-03-26T02:08:36.135Z,98122.25
2023-03-26T02:11:06.000Z,98119.00
2023-03-26T02:13:32.935Z,98121.47
2023-03-26T02:16:01.978Z,98123.94
2023-03-26T02:18:39.389Z,98110.44
2023-03-26T02:21:14.354Z,98090.59
2023-03-26T02:23:47.206Z,98095.22
2023-03-26T02:26:16.400Z,98102.25
2023-03-26T02:28:43.392Z,98090.00
2023-03-26T02:31:11.487Z,98093.41
2023-03-26T02:33:38.713Z,98098.63
2023-03-26T02:36:06.600Z,98085.94
2023-03-26T02:38:35.438Z,98094.75
2023-03-26T02:41:03.030Z,98093.91
2023-03-26T02:43:30.107Z,98087.84
2023-03-26T02:45:57.568Z,98084.69
2023-03-26T02:48:24.758Z,98081.81
2023-03-26T02:50:54.817Z,98083.00
2023-03-26T02:53:24.350Z,98085.38
2023-03-26T02:55:51.652Z,98090.69
2023-03-26T02:58:18.498Z,98086.28
2023-03-26T03:00:47.182Z,98090.09
2023-03-26T03:03:14.539Z,98075.66
2023-03-26T03:05:43.429Z,98071.22
2023-03-26T03:08:10.737Z,98070.63
2023-03-26T03:10:38.572Z,98065.72
2023-03-26T03:13:08.159Z,98066.84
2023-03-26T03:15:36.137Z,98056.53
2023-03-26T03:18:03.267Z,98056.75
2023-03-26T03:20:30.679Z,98064.88
2023-03-26T03:22:57.894Z,98060.13
2023-03-26T03:25:26.565Z,98059.38
2023-03-26T03:27:54.338Z,98058.91
2023-03-26T03:30:21.623Z,98057.88
2023-03-26T03:32:48.596Z,98050.41
2023-03-26T03:35:15.936Z,98054.94
2023-03-26T03:37:43.090Z,98054.75
2023-03-26T03:40:14.095Z,98052.66
2023-03-26T03:42:41.335Z,98048.47
2023-03-26T03:45:09.209Z,98058.81
2023-03-26T03:47:36.620Z,98057.19
2023-03-26T03:50:04.820Z,98045.75
2023-03-26T03:52:31.706Z,98044.81
2023-03-26T03:55:00.719Z,98046.34
2023-03-26T03:57:29.155Z,98041.56
2023-03-26T03:59:59.341Z,98039.41
2023-03-26T04:02:30.851Z,98030.59
2023-03-26T04:05:00.656Z,98027.28
2023-03-26T04:07:32.918Z,98040.47
2023-03-26T04:10:00.553Z,98031.97
2023-03-26T04:12:28.851Z,98032.53
2023-03-26T04:14:56.001Z,98026.84
2023-03-26T04:17:23.728Z,98017.75
2023-03-26T04:19:53.234Z,98015.13
2023-03-26T04:22:20.157Z,98014.44
2023-03-26T04:24:49.140Z,98018.09
2023-03-26T04:27:19.909Z,98011.00
2023-03-26T04:29:50.148Z,98009.75
2023-03-26T04:32:26.787Z,98010.59
2023-03-26T04:34:53.784Z,98011.59
2023-03-26T04:37:28.505Z,97999.28
2023-03-26T04:39:55.570Z,98004.13
2023-03-26T04:42:23.054Z,97991.34
2023-03-26T04:44:51.438Z,97991.56
2023-03-26T04:47:18.907Z,97990.97
2023-03-26T04:49:47.984Z,97996.13
2023-03-26T04:52:15.549Z,97990.91
2023-03-26T04:54:45.201Z,97978.94
2023-03-26T04:57:33.291Z,97985.94
2023-03-26T05:00:00.950Z,97978.13
2023-03-26T05:02:27.848Z,97974.22
2023-03-26T05:04:54.835Z,97979.75
2023-03-26T05:07:25.650Z,97982.41
2023-03-26T05:09:53.236Z,97972.44
2023-03-26T05:12:20.363Z,97965.66
2023-03-26T05:14:47.220Z,97957.44
2023-03-26T05:17:15.678Z,97958.28
2023-03-26T05:19:42.750Z,97951.69
2023-03-26T05:22:10.042Z,97956.06
2023-03-26T05:24:36.923Z,97956.22
2023-03-26T05:27:03.693Z,97956.59
2023-03-26T05:29:30.853Z,97946.75
2023-03-26T05:31:58.368Z,97953.59
2023-03-26T05:34:27.469Z,97952.31
2023-03-26T05:36:54.340Z,97964.09
2023-03-26T05:39:25.974Z,97967.53
2023-03-26T05:41:53.326Z,97953.47
2023-03-26T05:44:20.374Z,97965.41
2023-03-26T05:46:47.694Z,97969.91
2023-03-26T05:49:15.159Z,97963.03
2023-03-26T05:51:42.129Z,97962.53
2023-03-26T05:54:09.050Z,97963.63
2023-03-26T05:56:36.346Z,97956.03
2023-03-26T05:59:03.750Z,97953.13
2023-03-26T06:01:31.078Z,97956.47
2023-03-26T06:03:58.405Z,97949.91
2023-03-26T06:06:25.334Z,97946.34
2023-03-26T06:09:01.846Z,97940.81
2023-03-26T06:11:31.219Z,97937.59
2023-03-26T06:13:58.501Z,97930.84
2023-03-26T06:16:27.368Z,97933.84
2023-03-26T06:18:56.281Z,97926.44
2023-03-26T06:21:25.533Z,97923.69
2023-03-26T06:23:53.354Z,97931.91
2023-03-26T06:26:21.194Z,97928.56
2023-03-26T06:28:48.264Z,97921.75
2023-03-26T06:31:17.561Z,97937.56
2023-03-26T06:33:44.397Z,97930.44
2023-03-26T06:36:13.052Z,97923.28
2023-03-26T06:38:41.192Z,97922.03
2023-03-26T06:41:09.410Z,97922.50
2023-03-26T06:43:37.505Z,97923.97
2023-03-26T06:46:04.622Z,97920.63
2023-03-26T06:48:32.832Z,97930.34
2023-03-26T06:51:01.477Z,97919.38
2023-03-26T06:53:28.781Z,97911.88
2023-03-26T06:55:56.282Z,97909.03
2023-03-26T06:58:23.207Z,97904.47
2023-03-26T07:00:55.161Z,97906.56
2023-03-26T07:03:23.819Z,97902.19
2023-03-26T07:05:51.056Z,97903.34
2023-03-26T07:08:19.901Z,97899.63
2023-03-26T07:10:47.570Z,97891.00
2023-03-26T07:13:15.220Z,97894.88
2023-03-26T07:15:43.018Z,97894.03
2023-03-26T07:18:10.186Z,97891.97
2023-03-26T07:20:38.876Z,97884.22
2023-03-26T07:23:09.085Z,97884.88
2023-03-26T07:25:37.788Z,97880.47
2023-03-26T07:28:27.799Z,97874.09
2023-03-26T07:31:35.042Z,97867.13
2023-03-26T07:34:37.837Z,97869.28
2023-03-26T07:37:19.321Z,97867.84
2023-03-26T07:39:56.200Z,97865.56
2023-03-26T07:43:17.569Z,97868.16
2023-03-26T07:45:45.557Z,97858.84
2023-03-26T07:48:27.754Z,97859.84
2023-03-26T07:50:56.873Z,97855.25
2023-03-26T07:53:25.076Z,97856.38
2023-03-26T07:56:17.484Z,97853.94
2023-03-26T07:59:26.508Z,97853.59
2023-03-26T08:02:34.214Z,97850.66
2023-03-26T08:05:35.970Z,97857.91
2023-03-26T08:08:20.150Z,97851.31
2023-03-26T08:11:32.911Z,97851.47
2023-03-26T08:14:44.589Z,97839.88
2023-03-26T08:20:56.056Z,97824.97
2023-03-26T08:23:50.924Z,97822.19
2023-03-26T08:26:58.878Z,97814.97
2023-03-26T08:29:59.459Z,97814.19
2023-03-26T08:32:29.950Z,97807.13
2023-03-26T08:34:57.931Z,97806.63
2023-03-26T08:37:28.262Z,97808.13
2023-03-26T08:40:02.948Z,97809.09
2023-03-26T08:43:04.771Z,97804.84
2023-03-26T08:46:10.692Z,97803.22
2023-03-26T08:49:18.050Z,97799.59
2023-03-26T08:52:30.898Z,97800.94
2023-03-26T08:55:39.035Z,97790.13
2023-03-26T08:58:44.401Z,97791.44
2023-03-26T09:01:42.828Z,97790.97
2023-03-26T09:04:29.444Z,97785.38
2023-03-26T09:07:41.321Z,97780.66
2023-03-26T09:11:04.744Z,97775.75
2023-03-26T09:14:10.454Z,97777.72
2023-03-26T09:27:26.669Z,97763.94
2023-03-26T09:30:05.245Z,97760.66
2023-03-26T09:32:50.006Z,97761.19
2023-03-26T09:36:00.455Z,97759.84
2023-03-26T09:38:56.011Z,97750.84
2023-03-26T09:42:10.302Z,97748.69
2023-03-26T09:45:38.570Z,97746.38
2023-03-26T09:48:51.217Z,97742.16
2023-03-26T09:51:46.463Z,97747.22
2023-03-26T09:54:51.029Z,97741.66
2023-03-26T09:57:54.685Z,97745.59
2023-03-26T10:00:48.350Z,97738.03
2023-03-26T10:03:30.621Z,97742.63
2023-03-26T10:06:24.299Z,97739.19
2023-03-26T10:09:01.985Z,97736.53
2023-03-26T10:12:16.610Z,97738.38
2023-03-26T10:15:23.368Z,97730.00
2023-03-26T10:18:39.190Z,97726.91
2023-03-26T10:21:39.364Z,97728.25
2023-03-26T10:24:14.197Z,97727.56
2023-03-26T10:27:08.355Z,97733.44
2023-03-26T10:30:16.814Z,97721.34
2023-03-26T10:33:22.470Z,97726.13
2023-03-26T10:36:29.964Z,97723.16
2023-03-26T10:39:36.517Z,97718.94
2023-03-26T10:42:41.380Z,97717.78
2023-03-26T10:46:01.675Z,97719.56
2023-03-26T10:48:42.620Z,97715.78
2023-03-26T10:51:51.768Z,97714.34
2023-03-26T10:54:45.220Z,97709.44
2023-03-26T10:57:32.531Z,97703.22
2023-03-26T11:00:27.991Z,97706.97
2023-03-26T11:03:37.189Z,97702.38
2023-03-26T11:06:16.255Z,97704.84
2023-03-26T11:09:00.030Z,97704.03
2023-03-26T11:12:26.816Z,97706.00
2023-03-26T11:15:20.842Z,97696.84
2023-03-26T11:18:03.523Z,97700.28
2023-03-26T11:20:40.591Z,97690.63
2023-03-26T11:23:23.158Z,97701.56
2023-03-26T11:26:25.793Z,97699.81
2023-03-26T11:29:32.506Z,97701.78
2023-03-26T11:32:15.116Z,97689.81
2023-03-26T11:35:39.730Z,97695.53
2023-03-26T11:38:12.656Z,97689.00
2023-03-26T11:40:42.381Z,97689.31
2023-03-26T11:43:14.226Z,97691.44
2023-03-26T11:45:45.988Z,97691.13
2023-03-26T11:48:19.560Z,97679.34
2023-03-26T11:50:49.925Z,97686.22
2023-03-26T11:53:19.135Z,97691.94
2023-03-26T11:55:55.256Z,97688.69
2023-03-26T11:58:34.630Z,97691.59
2023-03-26T12:01:05.147Z,97691.59
2023-03-26T12:03:32.353Z,97700.09
2023-03-26T12:06:09.781Z,97699.56
2023-03-26T12:08:48.271Z,97691.84
2023-03-26T12:11:17.543Z,97686.28
2023-03-26T12:14:04.998Z,97693.13
2023-03-26T12:16:32.032Z,97687.50
2023-03-26T12:19:22.581Z,97685.38
2023-03-26T12:21:53.309Z,97689.09
2023-03-26T12:24:30.511Z,97678.50
2023-03-26T12:27:02.483Z,97674.72
2023-03-26T12:29:34.875Z,97674.91
2023-03-26T12:32:10.328Z,97668.13
2023-03-26T12:34:38.780Z,97668.75
2023-03-26T12:37:07.835Z,97664.63
2023-03-26T12:40:10.740Z,97664.94
2023-03-26T12:44:46.781Z,97656.19
2023-03-26T12:45:24.310Z,97647.53
2023-03-26T12:48:02.220Z,97649.31
2023-03-26T12:50:55.539Z,97638.06
2023-03-26T12:53:45.228Z,97638.56
2023-03-26T12:56:40.442Z,97638.41
2023-03-26T12:59:44.897Z,97631.88
2023-03-26T13:02:32.967Z,97629.59
2023-03-26T13:05:37.361Z,97623.38
2023-03-26T13:08:42.324Z,97614.88
2023-03-26T13:11:33.147Z,97611.78
2023-03-26T13:14:16.534Z,97601.66
2023-03-26T13:16:57.337Z,97609.50
2023-03-26T13:19:48.419Z,97601.00
2023-03-26T13:23:00.109Z,97591.00
2023-03-26T13:25:38.462Z,97595.13
2023-03-26T13:28:31.220Z,97593.81
2023-03-26T13:31:27.099Z,97584.63
2023-03-26T13:34:16.597Z,97583.47
2023-03-26T13:37:49.210Z,97575.16
2023-03-26T13:40:25.782Z,97570.41
2023-03-26T13:43:41.304Z,97564.34
2023-03-26T13:46:31.464Z,97564.66
2023-03-26T13:49:01.267Z,97561.72
2023-03-26T13:51:40.303Z,97567.44
2023-03-26T13:54:22.505Z,97563.16
2023-03-26T13:57:03.486Z,97556.03
2023-03-26T14:00:10.253Z,97554.88
2023-03-26T14:02:43.107Z,97549.97
2023-03-26T14:05:17.436Z,97549.31
2023-03-26T14:07:52.829Z,97551.31
2023-03-26T14:10:25.753Z,97542.75
2023-03-26T14:13:25.798Z,97538.31
2023-03-26T14:16:19.399Z,97538.53
2023-03-26T14:19:22.640Z,97538.00
2023-03-26T14:22:22.209Z,97539.16
2023-03-26T14:25:22.783Z,97534.41
2023-03-26T14:28:11.817Z,97532.91
2023-03-26T14:30:56.949Z,97532.41
2023-03-26T14:34:00.518Z,97529.16
2023-03-26T14:37:28.232Z,97528.06
2023-03-26T14:41:00.751Z,97529.13
2023-03-26T14:43:56.822Z,97526.50
2023-03-26T14:46:38.580Z,97525.81
2023-03-26T14:49:31.448Z,97519.13
2023-03-26T14:52:04.450Z,97518.81
2023-03-26T14:54:34.819Z,97516.50
2023-03-26T14:57:50.121Z,97516.50
2023-03-26T15:00:44.462Z,97510.19
2023-03-26T15:07:13.203Z,97502.88
2023-03-26T15:10:05.873Z,97499.81
2023-03-26T15:13:08.382Z,97500.81
2023-03-26T15:15:54.003Z,97495.28
2023-03-26T15:19:00.364Z,97483.91
2023-03-26T15:21:57.576Z,97488.16
2023-03-26T15:25:08.187Z,97487.94
2023-03-26T15:28:02.020Z,97486.78
2023-03-26T15:31:14.720Z,97490.34
2023-03-26T15:34:04.709Z,97487.44
2023-03-26T15:37:17.713Z,97485.88
2023-03-26T15:43:11.822Z,97487.03
2023-03-26T15:46:11.671Z,97491.13
2023-03-26T15:49:19.262Z,97489.66
2023-03-26T15:52:26.751Z,97493.25
2023-03-26T15:55:28.547Z,97490.88
2023-03-26T15:58:03.201Z,97497.72
2023-03-26T16:00:34.916Z,97485.25
2023-03-26T16:03:16.860Z,97484.25
2023-03-26T16:06:22.814Z,97493.44
2023-03-26T16:09:04.551Z,97486.69
2023-03-26T16:12:25.221Z,97482.63
2023-03-26T16:15:21.590Z,97495.03
2023-03-26T16:18:16.799Z,97495.19
2023-03-26T16:20:54.328Z,97499.41
2023-03-26T16:23:59.152Z,97494.84
2023-03-26T16:26:52.802Z,97492.88
2023-03-26T16:29:26.574Z,97490.31
2023-03-26T16:32:22.800Z,97490.97
2023-03-26T16:34:58.834Z,97501.88
2023-03-26T16:37:40.360Z,97500.00
2023-03-26T16:46:43.911Z,97501.56
2023-03-26T16:49:16.770Z,97496.53
2023-03-26T16:52:43.953Z,97495.13
2023-03-26T17:24:15.293Z,97502.50
2023-03-26T17:27:02.086Z,97504.13
2023-03-26T17:30:08.181Z,97509.03
2023-03-26T17:33:18.908Z,97511.69
2023-03-26T17:35:48.443Z,97507.13
2023-03-26T17:38:18.666Z,97514.13
2023-03-26T17:40:59.346Z,97503.66
2023-03-26T17:43:56.820Z,97503.16
2023-03-26T17:46:46.009Z,97503.66
2023-03-26T17:49:23.748Z,97504.50
2023-03-26T17:52:16.657Z,97501.56
2023-03-26T17:54:52.148Z,97504.50
2023-03-26T17:57:42.268Z,97514.28
2023-03-26T18:00:17.145Z,97520.88
2023-03-26T18:02:57.869Z,97518.41
2023-03-26T18:05:28.121Z,97522.84
2023-03-26T18:08:16.906Z,97524.63
2023-03-26T18:11:08.304Z,97530.03
2023-03-26T18:14:02.464Z,97529.56
2023-03-26T18:16:37.682Z,97533.97
2023-03-26T18:19:18.637Z,97535.44
2023-03-26T18:21:49.329Z,97530.38
2023-03-26T18:24:28.743Z,97545.41
2023-03-26T18:26:59.214Z,97548.66
2023-03-26T18:29:29.028Z,97552.94
2023-03-26T18:32:22.456Z,97557.50
2023-03-26T18:34:54.002Z,97544.72
2023-03-26T18:37:24.808Z,97555.88
2023-03-26T18:40:20.407Z,97557.13
2023-03-26T18:42:56.505Z,97559.41
2023-03-26T18:45:34.465Z,97555.88
2023-03-26T18:48:04.368Z,97560.06
2023-03-26T18:50:37.132Z,97558.75
2023-03-26T18:53:06.176Z,97564.28
2023-03-26T18:55:39.673Z,97569.88
2023-03-26T18:58:22.890Z,97575.16
2023-03-26T19:00:53.155Z,97572.97
2023-03-26T19:03:22.694Z,97578.09
2023-03-26T19:05:52.294Z,97580.53
2023-03-26T19:08:19.501Z,97584.63
2023-03-26T19:10:48.791Z,97584.81
2023-03-26T19:13:16.006Z,97586.91
2023-03-26T19:15:44.601Z,97593.19
2023-03-26T19:18:17.620Z,97591.06
2023-03-26T19:20:50.317Z,97597.28
2023-03-26T19:23:23.289Z,97599.56
2023-03-26T19:25:52.674Z,97601.22
2023-03-26T19:28:26.198Z,97607.25
2023-03-26T19:30:58.684Z,97607.75
2023-03-26T19:33:34.116Z,97611.03
2023-03-26T19:36:17.047Z,97612.44
2023-03-26T19:38:51.931Z,97610.91
2023-03-26T19:41:22.629Z,97616.13
2023-03-26T19:43:51.752Z,97623.97
2023-03-26T19:46:22.224Z,97623.03
2023-03-26T19:48:53.066Z,97625.28
2023-03-26T19:51:26.007Z,97627.91
2023-03-26T19:53:58.676Z,97629.22
2023-03-26T19:56:26.050Z,97640.69
2023-03-26T19:58:53.299Z,97639.56
2023-03-26T20:01:24.135Z,97638.66
2023-03-26T20:03:53.219Z,97645.91
2023-03-26T20:06:28.116Z,97648.31
2023-03-26T20:09:01.477Z,97650.28
2023-03-26T20:11:33.972Z,97653.50
2023-03-26T20:14:01.631Z,97657.34
2023-03-26T20:16:33.808Z,97665.13
2023-03-26T20:19:04.827Z,97667.13
2023-03-26T20:21:38.511Z,97671.31
2023-03-26T20:24:11.642Z,97675.19
2023-03-26T20:26:38.448Z,97678.50
2023-03-26T20:29:05.985Z,97674.28
2023-03-26T20:31:33.167Z,97680.03
2023-03-26T20:34:00.146Z,97682.59
2023-03-26T20:36:33.419Z,97693.94
2023-03-26T20:39:03.064Z,97687.97
2023-03-26T20:41:29.802Z,97692.28
2023-03-26T20:43:57.187Z,97697.22
2023-03-26T20:46:31.653Z,97697.56
2023-03-26T20:49:00.076Z,97704.13
2023-03-26T20:51:29.101Z,97703.47
2023-03-26T20:53:56.503Z,97709.97
2023-03-26T20:56:23.785Z,97708.63
2023-03-26T20:59:03.631Z,97719.56
2023-03-26T21:01:38.321Z,97721.00
2023-03-26T21:04:05.399Z,97719.44
2023-03-26T21:06:32.477Z,97723.16
2023-03-26T21:08:59.595Z,97731.44
2023-03-26T21:11:46.077Z,97733.31
2023-03-26T21:14:41.977Z,97730.56
2023-03-26T21:17:20.063Z,97747.16
2023-03-26T21:19:47.594Z,97747.06
2023-03-26T21:23:16.510Z,97754.75
2023-03-26T21:26:06.644Z,97763.38
2023-03-26T21:28:46.875Z,97773.06
2023-03-26T21:31:16.016Z,97777.09
2023-03-26T21:33:42.970Z,97774.38
2023-03-26T21:36:11.108Z,97782.50
2023-03-26T21:38:39.009Z,97780.75
2023-03-26T21:41:06.412Z,97790.34
2023-03-26T21:43:33.371Z,97791.22
2023-03-26T21:46:00.738Z,97792.28
2023-03-26T21:48:29.451Z,97809.69
2023-03-26T21:51:02.586Z,97809.47
2023-03-26T21:53:29.795Z,97820.28
2023-03-26T21:56:38.823Z,97818.56
2023-03-26T21:59:31.796Z,97831.31
2023-03-26T22:02:06.229Z,97834.84
2023-03-26T22:04:37.289Z,97841.44
2023-03-26T22:07:13.337Z,97850.75
2023-03-26T22:09:40.851Z,97851.44
2023-03-26T22:12:08.001Z,97866.06
2023-03-26T22:14:34.731Z,97860.91
2023-03-26T22:17:01.801Z,97865.03
2023-03-26T22:19:30.270Z,97871.31
2023-03-26T22:21:58.526Z,97874.34
2023-03-26T22:24:25.388Z,97878.19
2023-03-26T22:26:52.193Z,97883.38
2023-03-26T22:29:19.497Z,97891.59
2023-03-26T22:31:46.945Z,97898.06
2023-03-26T22:34:13.836Z,97895.03
2023-03-26T22:36:40.644Z,97905.16
2023-03-26T22:39:07.534Z,97902.97
2023-03-26T22:41:34.861Z,97916.81
2023-03-26T22:44:16.744Z,97921.63
2023-03-26T22:46:49.646Z,97931.91
2023-03-26T22:49:16.821Z,97933.69
2023-03-26T22:51:43.866Z,97937.50
2023-03-26T22:54:10.620Z,97946.91
2023-03-26T22:56:38.193Z,97944.84
2023-03-26T22:59:05.063Z,97945.50
2023-03-26T23:01:32.401Z,97953.19
2023-03-26T23:03:59.245Z,97951.00
2023-03-26T23:06:26.117Z,97965.78
2023-03-26T23:08:54.899Z,97968.94
2023-03-26T23:11:23.657Z,97969.44
2023-03-26T23:13:50.792Z,97979.44
2023-03-26T23:16:19.319Z,97984.06
2023-03-26T23:18:46.388Z,97980.69
2023-03-26T23:21:22.793Z,97988.75
2023-03-26T23:23:50.209Z,98009.53
2023-03-26T23:26:17.182Z,98013.66
2023-03-26T23:28:43.988Z,98011.47
2023-03-26T23:31:13.066Z,98016.09
2023-03-26T23:33:46.281Z,98023.66
2023-03-26T23:36:18.553Z,98028.97
2023-03-26T23:38:49.253Z,98039.56
2023-03-26T23:41:22.036Z,98047.00
2023-03-26T23:43:54.797Z,98056.38
2023-03-26T23:46:34.914Z,98058.53
2023-03-26T23:49:04.989Z,98067.19
2023-03-26T23:51:32.754Z,98070.91
2023-03-26T23:54:00.518Z,98064.81
2023-03-26T23:56:30.553Z,98073.78
2023-03-26T23:58:58.794Z,98063.28
